Time;durP1;ratioP1;P1;durP2;ratioP2;P2;SDS_P1;SDS_P2;PMS_P1;PMS_P2;Temp;Humidity;BMP_temperature;BMP_pressure;BME280_temperature;BME280_humidity;BME280_pressure;Samples;Min_cycle;Max_cycle;Signal;HPM_P1;HPM_P2
2022/02/20 00:01:26;;;;;;;6.22;0.80;;;;;;;4.52;100.00;101097.38;5060070;28;20083;-74
2022/02/20 00:03:51;;;;;;;5.18;1.02;;;;;;;4.51;100.00;101101.66;5059675;28;20029;-74
2022/02/20 00:06:17;;;;;;;7.85;0.73;;;;;;;4.49;100.00;101103.31;5066069;28;20028;-75
2022/02/20 00:08:43;;;;;;;8.43;0.90;;;;;;;4.51;100.00;101111.22;5034524;28;20029;-74
2022/02/20 00:11:08;;;;;;;3.50;0.55;;;;;;;4.48;100.00;101111.09;5048132;28;20052;-74
2022/02/20 00:13:34;;;;;;;2.67;0.90;;;;;;;4.50;100.00;101114.63;5038127;28;20031;-74
2022/02/20 00:15:59;;;;;;;8.10;0.80;;;;;;;4.50;100.00;101125.06;5066418;28;20041;-73
2022/02/20 00:18:24;;;;;;;7.55;0.85;;;;;;;4.50;100.00;101140.69;5058143;28;20373;-74
2022/02/20 00:20:50;;;;;;;4.28;0.70;;;;;;;4.54;100.00;101132.19;5055798;28;20118;-73
2022/02/20 00:23:16;;;;;;;4.20;1.05;;;;;;;4.54;100.00;101132.19;5034880;28;20427;-74
2022/02/20 00:25:43;;;;;;;5.00;0.77;;;;;;;4.56;100.00;101141.00;5055502;28;20511;-73
2022/02/20 00:28:08;;;;;;;3.22;0.52;;;;;;;4.60;100.00;101144.59;5058525;28;20025;-76
2022/02/20 00:30:33;;;;;;;3.78;0.45;;;;;;;4.57;100.00;101153.16;5045223;28;20044;-73
2022/02/20 00:33:00;;;;;;;7.32;0.55;;;;;;;4.56;100.00;101157.50;5045946;28;20024;-73
2022/02/20 00:35:30;;;;;;;3.90;0.60;;;;;;;4.60;100.00;101152.41;5052658;28;20461;-75
2022/02/20 00:37:56;;;;;;;1.55;0.47;;;;;;;4.61;100.00;101160.31;5054232;28;20021;-76
2022/02/20 00:40:23;;;;;;;9.95;0.70;;;;;;;4.59;100.00;101159.38;5048386;28;20460;-73
2022/02/20 00:42:49;;;;;;;5.55;0.75;;;;;;;4.62;100.00;101162.09;5056019;28;20033;-75
2022/02/20 00:45:14;;;;;;;3.78;0.70;;;;;;;4.63;100.00;101158.69;5062116;28;20036;-73
2022/02/20 00:47:41;;;;;;;2.78;0.65;;;;;;;4.59;100.00;101154.16;5041903;28;20037;-74
2022/02/20 00:50:06;;;;;;;4.97;0.70;;;;;;;4.59;100.00;101161.97;5064624;28;20029;-74
2022/02/20 00:52:32;;;;;;;2.88;0.95;;;;;;;4.60;100.00;101158.56;5065271;28;20100;-74
2022/02/20 00:54:57;;;;;;;5.00;0.77;;;;;;;4.59;100.00;101161.97;5056547;28;20117;-74
2022/02/20 00:57:22;;;;;;;8.02;1.00;;;;;;;4.62;100.00;101159.50;5063336;28;20035;-74
2022/02/20 00:59:48;;;;;;;5.18;1.33;;;;;;;4.63;100.00;101163.00;5060886;28;20016;-73
2022/02/20 01:02:14;;;;;;;1.80;0.60;;;;;;;4.64;100.00;101163.06;5038253;28;20051;-74
2022/02/20 01:04:39;;;;;;;1.88;0.32;;;;;;;4.62;100.00;101156.88;5069062;28;20060;-74
2022/02/20 01:07:05;;;;;;;1.95;0.43;;;;;;;4.64;100.00;101160.47;5076606;28;20455;-74
2022/02/20 01:09:30;;;;;;;10.07;0.82;;;;;;;4.66;100.00;101156.19;5072872;28;20032;-74
2022/02/20 01:11:56;;;;;;;4.70;1.10;;;;;;;4.67;100.00;101165.81;5058829;28;20028;-74
2022/02/20 01:14:21;;;;;;;4.78;0.88;;;;;;;4.67;100.00;101165.81;5062073;28;20028;-74
2022/02/20 01:16:46;;;;;;;7.63;0.68;;;;;;;4.67;100.00;101167.53;5073787;28;20028;-75
2022/02/20 01:19:12;;;;;;;6.32;0.85;;;;;;;4.70;100.00;101165.06;5056308;28;20032;-73
2022/02/20 01:21:37;;;;;;;4.70;0.70;;;;;;;4.73;100.00;101160.91;5050939;28;20120;-74
2022/02/20 01:24:03;;;;;;;3.97;0.63;;;;;;;4.71;100.00;101167.75;5068182;28;20082;-74
2022/02/20 01:26:28;;;;;;;6.05;1.02;;;;;;;4.77;100.00;101174.06;5055525;28;20028;-74
2022/02/20 01:28:54;;;;;;;5.82;0.93;;;;;;;4.77;100.00;101176.66;5056385;28;20029;-74
2022/02/20 01:31:19;;;;;;;2.72;0.40;;;;;;;4.78;100.00;101173.25;5056680;28;20094;-73
2022/02/20 01:33:44;;;;;;;7.80;0.70;;;;;;;4.80;100.00;101180.31;5075052;28;20036;-74
2022/02/20 01:36:10;;;;;;;3.40;0.68;;;;;;;4.82;100.00;101163.00;5055640;28;20067;-74
2022/02/20 01:38:35;;;;;;;5.53;0.55;;;;;;;4.79;100.00;101164.56;5054801;28;20028;-74
2022/02/20 01:41:00;;;;;;;2.40;0.60;;;;;;;4.79;100.00;101156.75;5060257;28;20024;-74
2022/02/20 01:43:26;;;;;;;3.00;0.50;;;;;;;4.80;100.00;101153.34;5056824;28;20099;-74
2022/02/20 01:45:51;;;;;;;6.18;0.57;;;;;;;4.80;100.00;101145.50;5057751;28;20029;-75
2022/02/20 01:48:17;;;;;;;7.22;0.70;;;;;;;4.82;100.00;101147.38;5054364;28;20041;-75
2022/02/20 01:50:42;;;;;;;2.85;0.55;;;;;;;4.80;100.00;101150.72;5070553;28;20381;-73
2022/02/20 01:53:08;;;;;;;5.25;0.70;;;;;;;4.81;100.00;101148.19;5064903;28;20048;-74
2022/02/20 01:55:34;;;;;;;4.45;0.75;;;;;;;4.83;100.00;101141.34;5043191;28;20020;-73
2022/02/20 01:58:00;;;;;;;8.30;0.93;;;;;;;4.79;100.00;101143.72;5063744;28;20035;-74
2022/02/20 02:00:25;;;;;;;7.70;0.70;;;;;;;4.79;100.00;101146.31;5055158;28;20017;-74
2022/02/20 02:02:51;;;;;;;11.45;0.80;;;;;;;4.77;100.00;101140.16;5074574;28;20098;-73
2022/02/20 02:05:16;;;;;;;3.72;0.57;;;;;;;4.78;100.00;101152.38;5070193;28;20021;-73
2022/02/20 02:07:42;;;;;;;5.05;0.38;;;;;;;4.76;100.00;101149.72;5043854;28;20033;-74
2022/02/20 02:10:08;;;;;;;3.30;0.52;;;;;;;4.76;100.00;101143.59;5072721;28;20031;-75
2022/02/20 02:12:35;;;;;;;6.70;1.67;;;;;;;4.69;100.00;101143.34;5073297;28;20050;-74
2022/02/20 02:15:07;;;;;;;6.05;0.95;;;;;;;4.68;100.00;101140.63;5061482;28;20108;-75
2022/02/20 02:17:33;;;;;;;10.27;1.17;;;;;;;4.63;100.00;101137.81;5066897;28;20437;-74
2022/02/20 02:19:59;;;;;;;3.33;1.15;;;;;;;4.62;100.00;101130.81;5061097;28;20023;-74
2022/02/20 02:22:25;;;;;;;7.63;0.80;;;;;;;4.59;100.00;101128.09;5073947;28;20040;-74
2022/02/20 02:24:52;;;;;;;7.25;1.08;;;;;;;4.55;100.00;101136.59;5070520;28;20032;-73
2022/02/20 02:27:18;;;;;;;3.53;0.70;;;;;;;4.53;100.00;101130.41;5055522;28;20112;-73
2022/02/20 02:29:45;;;;;;;4.88;0.70;;;;;;;4.54;100.00;101132.19;5066531;28;20119;-73
2022/02/20 02:32:11;;;;;;;7.00;1.00;;;;;;;4.52;100.00;101132.13;5051927;28;20032;-74
2022/02/20 02:34:39;;;;;;;5.07;0.60;;;;;;;4.53;100.00;101115.69;5066940;28;20028;-74
2022/02/20 02:37:04;;;;;;;8.02;1.02;;;;;;;4.52;100.00;101113.00;5048874;28;20436;-74
2022/02/20 02:39:29;;;;;;;5.60;0.82;;;;;;;4.50;100.00;101104.22;5057557;28;20052;-74
2022/02/20 02:41:55;;;;;;;6.22;1.45;;;;;;;4.51;100.00;101099.06;5038112;28;20119;-73
2022/02/20 02:44:20;;;;;;;8.07;0.85;;;;;;;4.44;100.00;101103.94;5063984;28;20024;-74
2022/02/20 02:46:46;;;;;;;4.50;0.80;;;;;;;4.42;100.00;101109.06;5054930;28;20465;-74
2022/02/20 02:49:12;;;;;;;5.57;0.90;;;;;;;4.38;100.00;101105.44;5065432;28;20369;-74
2022/02/20 02:51:38;;;;;;;11.57;2.05;;;;;;;4.45;100.00;101093.59;5046092;28;20025;-74
2022/02/20 02:54:12;;;;;;;8.65;0.90;;;;;;;4.37;100.00;101103.66;5058642;28;20190;-74
2022/02/20 02:56:38;;;;;;;9.15;0.70;;;;;;;4.35;100.00;101110.53;5058193;28;20021;-74
2022/02/20 02:59:04;;;;;;;6.95;1.02;;;;;;;4.31;100.00;101113.78;5054921;28;20055;-73
2022/02/20 03:01:30;;;;;;;2.05;1.05;;;;;;;4.37;100.00;101114.06;5042640;28;20381;-74
2022/02/20 03:03:58;;;;;;;5.63;1.17;;;;;;;4.39;100.00;101102.03;5044305;28;20036;-73
2022/02/20 03:06:25;;;;;;;11.88;2.85;;;;;;;4.33;100.00;101106.06;5041111;28;20036;-73
2022/02/20 03:08:50;;;;;;;6.78;1.73;;;;;;;4.33;100.00;101101.72;5055190;28;20031;-73
2022/02/20 03:11:17;;;;;;;5.68;1.88;;;;;;;4.28;100.00;101095.41;5054712;28;20029;-74
2022/02/20 03:13:42;;;;;;;5.47;1.60;;;;;;;4.23;100.00;101083.88;5045433;28;20465;-75
2022/02/20 03:16:08;;;;;;;7.70;1.98;;;;;;;4.24;100.00;101079.59;5058937;28;20025;-75
2022/02/20 03:18:33;;;;;;;14.43;2.58;;;;;;;4.23;100.00;101068.25;5057679;28;20030;-74
2022/02/20 03:21:00;;;;;;;5.22;2.35;;;;;;;4.22;100.00;101066.50;5051469;28;20105;-73
2022/02/20 03:23:26;;;;;;;10.50;2.90;;;;;;;4.25;100.00;101066.63;5057023;28;20029;-73
2022/02/20 03:25:52;;;;;;;11.18;4.07;;;;;;;4.22;100.00;101062.16;5054171;28;20117;-73
2022/02/20 03:28:18;;;;;;;8.23;2.72;;;;;;;4.22;100.00;101054.34;5051004;28;20033;-73
2022/02/20 03:30:43;;;;;;;6.43;3.72;;;;;;;4.16;100.00;101053.19;5058369;28;20032;-73
2022/02/20 03:33:09;;;;;;;10.45;4.15;;;;;;;4.17;100.00;101054.97;5065278;28;20033;-74
2022/02/20 03:35:35;;;;;;;7.25;4.43;;;;;;;4.19;100.00;101055.91;5062109;28;20104;-74
2022/02/20 03:38:01;;;;;;;10.90;5.20;;;;;;;4.21;100.00;101054.28;5059505;28;20104;-73
2022/02/20 03:40:26;;;;;;;10.52;4.60;;;;;;;4.21;100.00;101043.88;5065050;28;20017;-73
2022/02/20 03:42:52;;;;;;;9.45;4.03;;;;;;;4.17;100.00;101042.81;5058437;28;20067;-72
2022/02/20 03:45:18;;;;;;;5.38;3.88;;;;;;;4.18;100.00;101041.13;5060234;28;20035;-72
2022/02/20 03:47:43;;;;;;;8.95;4.18;;;;;;;4.18;100.00;101033.31;5056380;28;20053;-73
2022/02/20 03:50:09;;;;;;;9.13;5.30;;;;;;;4.14;100.00;101028.78;5061110;28;20029;-73
2022/02/20 03:52:35;;;;;;;11.88;6.38;;;;;;;4.20;100.00;101022.13;5043428;28;20527;-71
2022/02/20 03:55:02;;;;;;;15.75;7.00;;;;;;;4.12;100.00;101022.59;5058052;28;20032;-71
2022/02/20 03:57:32;;;;;;;11.60;7.13;;;;;;;4.09;100.00;101025.97;5064290;28;20538;-73
2022/02/20 04:00:02;;;;;;;13.50;6.55;;;;;;;4.11;100.00;101016.53;5045292;28;20025;-73
2022/02/20 04:02:30;;;;;;;9.50;6.20;;;;;;;4.15;100.00;101012.31;5056384;28;20484;-72
2022/02/20 04:04:55;;;;;;;14.23;5.70;;;;;;;4.10;100.00;101008.63;5069008;28;20528;-72
2022/02/20 04:07:20;;;;;;;17.00;6.60;;;;;;;4.05;100.00;100998.88;5061470;28;20025;-72
2022/02/20 04:09:46;;;;;;;8.48;6.18;;;;;;;4.04;100.00;101004.03;5058597;28;20032;-72
2022/02/20 04:12:11;;;;;;;10.07;6.38;;;;;;;4.07;100.00;100998.06;5066636;28;20036;-72
2022/02/20 04:14:36;;;;;;;13.13;6.45;;;;;;;4.02;100.00;100995.25;5063775;28;20035;-72
2022/02/20 04:17:02;;;;;;;20.60;6.70;;;;;;;3.98;100.00;100983.81;5068029;28;20040;-72
2022/02/20 04:19:27;;;;;;;14.15;6.30;;;;;;;3.98;100.00;100975.13;5063659;28;20538;-73
2022/02/20 04:21:53;;;;;;;12.20;5.65;;;;;;;3.96;100.00;100976.75;5060463;28;20437;-72
2022/02/20 04:24:18;;;;;;;12.05;6.10;;;;;;;3.91;100.00;100954.81;5061445;28;20357;-72
2022/02/20 04:26:44;;;;;;;13.48;7.28;;;;;;;3.90;100.00;100950.44;5052103;28;20043;-72
2022/02/20 04:29:09;;;;;;;13.45;6.97;;;;;;;3.87;100.00;100949.47;5039497;28;20158;-72
2022/02/20 04:31:36;;;;;;;11.95;7.65;;;;;;;3.86;100.00;100939.88;5069833;28;20396;-72
2022/02/20 04:34:02;;;;;;;18.55;7.38;;;;;;;3.87;100.00;100940.78;5041458;28;20053;-72
2022/02/20 04:36:28;;;;;;;15.38;8.43;;;;;;;3.85;100.00;100939.81;5067015;28;20033;-72
2022/02/20 04:38:53;;;;;;;20.75;9.00;;;;;;;3.88;100.00;100929.56;5056165;28;20450;-72
2022/02/20 04:41:21;;;;;;;20.65;9.40;;;;;;;3.89;100.00;100933.91;5056679;28;20029;-72
2022/02/20 04:43:48;;;;;;;21.25;8.45;;;;;;;3.94;100.00;100919.41;5056147;28;20492;-72
2022/02/20 04:46:13;;;;;;;18.73;8.90;;;;;;;3.97;100.00;100901.31;5052236;28;20035;-74
2022/02/20 04:48:38;;;;;;;22.10;9.82;;;;;;;3.98;100.00;100894.41;5065666;28;20044;-72
2022/02/20 04:51:03;;;;;;;17.50;9.10;;;;;;;4.01;100.00;100887.59;5050846;28;20025;-72
2022/02/20 04:53:29;;;;;;;23.20;9.60;;;;;;;4.04;100.00;100864.31;5052370;28;20028;-73
2022/02/20 04:55:54;;;;;;;22.85;9.10;;;;;;;4.05;100.00;100849.56;5063836;28;20113;-72
2022/02/20 04:58:19;;;;;;;23.85;9.25;;;;;;;4.08;100.00;100836.69;5050550;28;20442;-72
2022/02/20 05:00:45;;;;;;;31.27;9.52;;;;;;;4.10;100.00;100829.84;5060430;28;20028;-72
2022/02/20 05:03:10;;;;;;;20.40;9.93;;;;;;;4.13;100.00;100821.28;5064031;28;20032;-72
2022/02/20 05:05:37;;;;;;;28.67;9.75;;;;;;;4.13;100.00;100824.75;5056608;28;20438;-72
2022/02/20 05:08:04;;;;;;;33.63;11.43;;;;;;;4.17;100.00;100812.75;5058248;28;20028;-72
2022/02/20 05:10:29;;;;;;;28.70;10.82;;;;;;;4.23;100.00;100802.59;5058452;28;20060;-72
2022/02/20 05:12:54;;;;;;;32.03;10.73;;;;;;;4.29;100.00;100792.44;5066440;28;20101;-72
2022/02/20 05:15:20;;;;;;;25.35;11.18;;;;;;;4.32;100.00;100782.13;5060053;28;20058;-73
2022/02/20 05:17:45;;;;;;;30.20;11.27;;;;;;;4.38;100.00;100774.56;5052609;28;20155;-72
2022/02/20 05:20:11;;;;;;;34.10;12.07;;;;;;;4.46;100.00;100774.00;5048878;28;20111;-73
2022/02/20 05:22:36;;;;;;;40.67;12.10;;;;;;;4.53;100.00;100770.78;5055734;28;20024;-72
2022/02/20 05:25:01;;;;;;;32.92;12.35;;;;;;;4.60;100.00;100759.81;5059469;28;20029;-73
2022/02/20 05:27:28;;;;;;;46.22;13.02;;;;;;;4.65;100.00;100763.47;5055364;28;20024;-73
2022/02/20 05:29:53;;;;;;;29.55;12.45;;;;;;;4.70;100.00;100774.94;5057521;28;20023;-73
2022/02/20 05:32:23;;;;;;;37.83;12.82;;;;;;;4.77;100.00;100780.41;5059268;28;20447;-73
2022/02/20 05:34:50;;;;;;;39.13;13.15;;;;;;;4.82;100.00;100763.25;5058613;28;20102;-73
2022/02/20 05:37:15;;;;;;;36.90;12.85;;;;;;;4.87;100.00;100753.84;5052891;28;20090;-73
2022/02/20 05:39:40;;;;;;;45.03;14.50;;;;;;;4.93;100.00;100730.63;5050144;28;20028;-73
2022/02/20 05:42:06;;;;;;;42.95;14.27;;;;;;;5.04;100.00;100746.69;5064676;28;20484;-74
2022/02/20 05:44:31;;;;;;;40.83;14.43;;;;;;;5.07;100.00;100752.91;5067809;28;20036;-74
2022/02/20 05:46:57;;;;;;;35.95;14.52;;;;;;;5.17;100.00;100745.44;5058577;28;20392;-74
2022/02/20 05:49:22;;;;;;;42.33;15.98;;;;;;;5.24;100.00;100735.25;5041269;28;20056;-74
2022/02/20 05:51:47;;;;;;;39.47;15.77;;;;;;;5.33;100.00;100737.34;5051478;28;20059;-74
2022/02/20 05:54:12;;;;;;;42.95;16.15;;;;;;;5.44;100.00;100728.97;5050012;28;20069;-77
2022/02/20 05:56:38;;;;;;;37.10;15.90;;;;;;;5.50;100.00;100719.66;5047683;28;20074;-77
2022/02/20 05:59:03;;;;;;;37.60;14.90;;;;;;;5.62;100.00;100716.59;5055121;28;20032;-77
2022/02/20 06:01:31;;;;;;;45.20;16.35;;;;;;;5.72;100.00;100708.25;5062200;28;20024;-77
2022/02/20 06:03:56;;;;;;;44.30;16.10;;;;;;;5.82;100.00;100712.06;5049495;28;20056;-77
2022/02/20 06:06:22;;;;;;;47.10;14.98;;;;;;;5.95;100.00;100695.06;5069258;28;20472;-77
2022/02/20 06:08:47;;;;;;;37.55;14.55;;;;;;;6.07;100.00;100699.84;5053386;28;20037;-76
2022/02/20 06:11:12;;;;;;;36.25;12.63;;;;;;;6.14;100.00;100688.72;5050084;28;20021;-76
2022/02/20 06:13:38;;;;;;;40.83;12.70;;;;;;;6.30;100.00;100690.09;5055059;28;20032;-77
2022/02/20 06:16:03;;;;;;;32.33;12.00;;;;;;;6.38;100.00;100688.63;5067305;28;20029;-77
2022/02/20 06:18:29;;;;;;;35.47;12.73;;;;;;;6.48;100.00;100694.13;5069232;28;20041;-78
2022/02/20 06:20:54;;;;;;;35.15;11.52;;;;;;;6.57;100.00;100681.34;5047748;28;20013;-78
2022/02/20 06:23:19;;;;;;;38.47;10.95;;;;;;;6.66;100.00;100689.47;5061379;28;20057;-78
2022/02/20 06:25:45;;;;;;;38.70;10.25;;;;;;;6.74;100.00;100689.69;5064322;28;20481;-79
2022/02/20 06:28:10;;;;;;;29.92;9.77;;;;;;;6.84;100.00;100680.41;5057394;28;20033;-79
2022/02/20 06:30:35;;;;;;;41.53;9.32;;;;;;;6.92;100.00;100681.50;5051247;28;20469;-78
2022/02/20 06:33:01;;;;;;;34.55;8.00;;;;;;;7.00;100.00;100673.84;5069060;28;20108;-76
2022/02/20 06:35:26;;;;;;;28.58;7.88;;;;;;;7.12;100.00;100668.09;5070731;28;20029;-75
2022/02/20 06:37:51;;;;;;;46.63;7.13;;;;;;;7.23;100.00;100657.09;5061833;28;20047;-75
2022/02/20 06:40:17;;;;;;;39.20;6.47;;;;;;;7.39;100.00;100662.72;5062063;28;20433;-75
2022/02/20 06:42:42;;;;;;;28.35;5.90;;;;;;;7.58;100.00;100664.06;5068029;28;20032;-74
2022/02/20 06:45:08;;;;;;;44.20;7.20;;;;;;;7.71;100.00;100663.56;5065754;28;20070;-75
2022/02/20 06:47:33;;;;;;;56.42;6.93;;;;;;;7.76;100.00;100655.81;5049932;28;20041;-75
2022/02/20 06:49:58;;;;;;;62.10;7.28;;;;;;;7.84;100.00;100682.19;5049772;28;20059;-76
2022/02/20 06:52:25;;;;;;;59.88;7.53;;;;;;;7.91;100.00;100648.34;5054960;28;20079;-75
2022/02/20 06:54:50;;;;;;;52.38;7.22;;;;;;;7.97;100.00;100651.97;5069022;28;20029;-75
2022/02/20 06:57:16;;;;;;;69.35;7.57;;;;;;;8.07;100.00;100652.22;5049860;28;20021;-75
2022/02/20 06:59:41;;;;;;;56.63;9.63;;;;;;;8.08;100.00;100645.22;5066832;28;20056;-75
2022/02/20 07:02:06;;;;;;;44.63;5.63;;;;;;;8.21;100.00;100636.78;5053161;28;20112;-75
2022/02/20 07:04:32;;;;;;;59.88;9.73;;;;;;;8.19;100.00;100629.75;5054309;28;20043;-75
2022/02/20 07:06:57;;;;;;;50.70;6.30;;;;;;;8.19;100.00;100616.66;5054975;28;20034;-75
2022/02/20 07:09:22;;;;;;;72.22;7.70;;;;;;;8.23;100.00;100618.47;5070882;28;20036;-75
2022/02/20 07:11:48;;;;;;;51.28;6.45;;;;;;;8.29;100.00;100613.38;5054451;28;20020;-75
2022/02/20 07:14:13;;;;;;;60.03;7.95;;;;;;;8.26;100.00;100608.06;5051374;28;20071;-75
2022/02/20 07:16:38;;;;;;;53.22;7.13;;;;;;;8.29;100.00;100626.50;5051908;28;20036;-76
2022/02/20 07:19:04;;;;;;;48.80;7.30;;;;;;;8.35;100.00;100637.09;5062097;28;20112;-75
2022/02/20 07:21:29;;;;;;;58.65;8.10;;;;;;;8.32;100.00;100613.44;5044831;28;20119;-75
2022/02/20 07:23:55;;;;;;;64.55;7.07;;;;;;;8.35;100.00;100631.84;5054395;28;20109;-74
2022/02/20 07:26:22;;;;;;;57.40;8.68;;;;;;;8.37;100.00;100610.91;5040808;28;20040;-75
2022/02/20 07:28:47;;;;;;;58.95;8.30;;;;;;;8.42;100.00;100609.28;5062105;28;20465;-75
2022/02/20 07:31:12;;;;;;;64.85;7.63;;;;;;;8.49;100.00;100599.84;5053527;28;20063;-74
2022/02/20 07:33:38;;;;;;;61.38;8.00;;;;;;;8.49;100.00;100597.22;5051654;28;20067;-75
2022/02/20 07:36:04;;;;;;;57.33;6.50;;;;;;;8.51;100.00;100582.41;5050599;28;20051;-75
2022/02/20 07:38:29;;;;;;;71.57;8.65;;;;;;;8.52;100.00;100581.53;5068240;28;20028;-75
2022/02/20 07:40:55;;;;;;;60.70;7.05;;;;;;;8.55;100.00;100586.88;5056108;28;20492;-75
2022/02/20 07:43:20;;;;;;;61.15;9.63;;;;;;;8.54;100.00;100593.84;5066580;28;20498;-75
2022/02/20 07:45:45;;;;;;;49.78;6.50;;;;;;;8.57;100.00;100593.03;5067421;28;20392;-76
2022/02/20 07:48:11;;;;;;;60.80;7.15;;;;;;;8.59;100.00;100583.47;5066307;28;20086;-77
2022/02/20 07:50:38;;;;;;;56.50;7.13;;;;;;;8.63;100.00;100598.41;5053473;28;20045;-76
2022/02/20 07:53:06;;;;;;;82.22;7.63;;;;;;;8.67;100.00;100587.13;5062798;28;20039;-75
2022/02/20 07:55:32;;;;;;;58.63;6.90;;;;;;;8.73;100.00;100604.72;5071382;28;20029;-76
2022/02/20 07:58:00;;;;;;;56.97;7.93;;;;;;;8.78;100.00;100601.31;5074281;28;20048;-76
2022/02/20 08:00:30;;;;;;;60.55;7.90;;;;;;;8.83;100.00;100611.03;5053016;28;20029;-76
2022/02/20 08:02:56;;;;;;;58.85;7.30;;;;;;;8.91;100.00;100598.94;5069269;28;20384;-76
2022/02/20 08:05:22;;;;;;;61.95;8.45;;;;;;;8.98;100.00;100584.19;5071033;28;20025;-76
2022/02/20 08:07:47;;;;;;;42.00;7.10;;;;;;;9.00;100.00;100609.63;5053261;28;20108;-75
2022/02/20 08:10:13;;;;;;;45.25;6.63;;;;;;;9.07;100.00;100592.25;5063697;28;20353;-76
2022/02/20 08:12:38;;;;;;;55.03;8.30;;;;;;;9.08;100.00;100571.28;5058907;28;20476;-76
2022/02/20 08:15:04;;;;;;;53.30;7.68;;;;;;;9.06;100.00;100588.75;5062673;28;20024;-75
2022/02/20 08:17:30;;;;;;;60.58;9.20;;;;;;;9.14;100.00;100594.13;5070139;28;20039;-76
2022/02/20 08:19:55;;;;;;;50.40;7.22;;;;;;;9.17;100.00;100580.16;5056788;28;20021;-76
2022/02/20 08:22:20;;;;;;;48.15;6.43;;;;;;;9.16;100.00;100589.78;5065153;28;20070;-76
2022/02/20 08:24:46;;;;;;;42.05;5.93;;;;;;;9.17;100.00;100596.81;5072316;28;20044;-75
2022/02/20 08:27:13;;;;;;;52.22;6.80;;;;;;;9.13;100.00;100584.50;5059152;28;20056;-75
2022/02/20 08:29:40;;;;;;;45.75;5.85;;;;;;;9.22;100.00;100583.75;5071291;28;20032;-75
2022/02/20 08:32:06;;;;;;;47.30;7.03;;;;;;;9.26;100.00;100565.50;5047388;28;20039;-75
2022/02/20 08:34:36;;;;;;;53.20;6.30;;;;;;;9.25;100.00;100583.81;5054035;28;20039;-76
2022/02/20 08:37:02;;;;;;;47.13;6.28;;;;;;;9.27;100.00;100590.00;5058267;28;20499;-75
2022/02/20 08:39:28;;;;;;;41.15;7.15;;;;;;;9.38;100.00;100590.19;5072938;28;20021;-75
2022/02/20 08:41:55;;;;;;;46.90;6.75;;;;;;;9.42;100.00;100571.00;5059221;28;20028;-75
2022/02/20 08:44:20;;;;;;;54.97;7.00;;;;;;;9.37;100.00;100594.56;5057467;28;20016;-75
2022/02/20 08:46:45;;;;;;;47.80;5.63;;;;;;;9.39;100.00;100603.34;5045249;28;20058;-76
2022/02/20 08:49:11;;;;;;;48.80;7.00;;;;;;;9.40;100.00;100591.06;5058656;28;20094;-76
2022/02/20 08:51:37;;;;;;;55.08;7.45;;;;;;;9.39;100.00;100594.59;5056853;28;20481;-76
2022/02/20 08:54:02;;;;;;;46.35;7.20;;;;;;;9.35;100.00;100617.25;5051947;28;20055;-76
2022/02/20 08:56:28;;;;;;;50.95;7.68;;;;;;;9.35;100.00;100584.88;5064898;28;20044;-75
2022/02/20 08:58:54;;;;;;;56.10;8.90;;;;;;;9.36;100.00;100586.63;5060927;28;20040;-75
2022/02/20 09:01:20;;;;;;;56.15;8.88;;;;;;;9.38;100.00;100575.28;5063721;28;20028;-75
2022/02/20 09:03:45;;;;;;;58.25;9.73;;;;;;;9.40;100.00;100584.09;5050092;28;20043;-76
2022/02/20 09:06:11;;;;;;;53.95;7.28;;;;;;;9.38;100.00;100591.06;5052209;28;20028;-75
2022/02/20 09:08:36;;;;;;;47.95;7.15;;;;;;;9.43;100.00;100594.66;5057703;28;20145;-75
2022/02/20 09:11:02;;;;;;;51.80;9.00;;;;;;;9.45;100.00;100592.94;5047996;28;20041;-75
2022/02/20 09:13:28;;;;;;;41.85;6.55;;;;;;;9.53;100.00;100590.44;5065862;28;20024;-74
2022/02/20 09:15:54;;;;;;;51.28;7.53;;;;;;;9.55;100.00;100577.31;5068766;28;20082;-74
2022/02/20 09:18:19;;;;;;;61.53;8.68;;;;;;;9.59;100.00;100579.13;5057850;28;20048;-74
2022/02/20 09:20:45;;;;;;;51.40;7.50;;;;;;;9.65;100.00;100578.38;5073382;28;20039;-76
2022/02/20 09:23:11;;;;;;;57.45;9.18;;;;;;;9.71;100.00;100589.88;5068751;28;20124;-75
2022/02/20 09:25:36;;;;;;;57.67;8.30;;;;;;;9.73;100.00;100566.25;5057181;28;20111;-76
2022/02/20 09:28:01;;;;;;;57.78;8.63;;;;;;;9.74;100.00;100568.88;5072574;28;20115;-76
2022/02/20 09:30:27;;;;;;;44.10;7.40;;;;;;;9.81;100.00;100568.97;5055569;28;20041;-76
2022/02/20 09:32:52;;;;;;;52.08;6.72;;;;;;;9.84;100.00;100569.03;5049525;28;20024;-75
2022/02/20 09:35:18;;;;;;;54.67;7.93;;;;;;;9.82;100.00;100589.13;5073106;28;20483;-75
2022/02/20 09:37:44;;;;;;;51.03;7.15;;;;;;;9.78;100.00;100575.94;5070665;28;20078;-76
2022/02/20 09:40:10;;;;;;;61.35;9.07;;;;;;;9.77;100.00;100573.31;5055454;28;20021;-76
2022/02/20 09:42:36;;;;;;;59.72;8.45;;;;;;;9.84;100.00;100553.25;5058773;28;20115;-76
2022/02/20 09:45:02;;;;;;;47.25;7.40;;;;;;;9.79;100.00;100558.44;5042325;28;20064;-75
2022/02/20 09:47:29;;;;;;;54.10;7.57;;;;;;;9.70;100.00;100561.81;5053711;28;20490;-76
2022/02/20 09:50:01;;;;;;;57.30;8.13;;;;;;;9.63;100.00;100586.22;5043866;28;20041;-75
2022/02/20 09:52:27;;;;;;;68.90;11.18;;;;;;;9.52;100.00;100572.91;5044988;28;20048;-74
2022/02/20 09:54:52;;;;;;;59.40;7.93;;;;;;;9.42;100.00;100576.25;5073024;28;20024;-77
2022/02/20 09:57:18;;;;;;;67.47;9.45;;;;;;;9.36;100.00;100611.16;5074985;28;20043;-77
2022/02/20 09:59:43;;;;;;;65.88;9.02;;;;;;;9.31;100.00;100575.19;5075106;28;20031;-76
2022/02/20 10:02:12;;;;;;;52.08;8.13;;;;;;;9.18;100.00;100598.56;5056908;28;20036;-76
2022/02/20 10:04:39;;;;;;;68.38;8.43;;;;;;;9.16;100.00;100594.19;5071796;28;20079;-77
2022/02/20 10:07:04;;;;;;;67.68;8.25;;;;;;;9.07;100.00;100611.50;5048455;28;20029;-78
2022/02/20 10:09:36;;;;;;;60.22;8.98;;;;;;;9.08;100.00;100601.91;5042354;28;20032;-77
2022/02/20 10:12:17;;;;;;;67.38;8.40;;;;;;;8.99;100.00;100581.59;5051431;28;20025;-77
2022/02/20 10:14:42;;;;;;;70.13;11.32;;;;;;;8.98;100.00;100599.94;5065094;28;20230;-77
2022/02/20 10:17:12;;;;;;;74.57;9.30;;;;;;;8.94;100.00;100599.03;5063608;28;20077;-77
2022/02/20 10:19:57;;;;;;;50.00;8.80;;;;;;;8.97;100.00;100580.69;5062877;28;20025;-78
2022/02/20 10:22:33;;;;;;;89.57;10.00;;;;;;;8.94;100.00;100581.53;5062496;28;20036;-77
2022/02/20 10:25:11;;;;;;;59.20;8.32;;;;;;;8.93;100.00;100613.00;5066313;28;20013;-77
2022/02/20 10:27:49;;;;;;;67.45;8.57;;;;;;;8.97;100.00;100578.06;5058854;28;20511;-76
2022/02/20 10:30:21;;;;;;;62.65;9.50;;;;;;;8.94;100.00;100584.16;5051907;28;20036;-77
2022/02/20 10:33:16;;;;;;;67.60;9.02;;;;;;;8.94;100.00;100591.16;5065978;28;20021;-77
2022/02/20 10:35:45;;;;;;;;;;;;;;;8.93;100.00;100577.13;5054582;28;20546;-78
2022/02/20 10:38:14;;;;;;;58.25;8.15;;;;;;;8.92;100.00;100570.09;5061308;28;20296;-76
2022/02/20 10:40:43;;;;;;;87.88;10.93;;;;;;;8.93;100.00;100558.75;5059869;28;20025;-76
2022/02/20 10:43:22;;;;;;;81.38;9.32;;;;;;;8.92;100.00;100563.97;5069567;28;20024;-77
2022/02/20 10:45:49;;;;;;;91.45;10.20;;;;;;;8.91;100.00;100563.09;5064534;28;20032;-76
2022/02/20 10:48:17;;;;;;;65.40;10.75;;;;;;;8.94;100.00;100550.03;5052672;28;20041;-78
2022/02/20 10:50:42;;;;;;;64.32;8.63;;;;;;;8.97;100.00;100561.44;5037715;28;20357;-77
2022/02/20 10:53:14;;;;;;;88.65;10.77;;;;;;;8.96;100.00;100564.94;5048836;28;20032;-80
2022/02/20 10:55:45;;;;;;;57.38;9.13;;;;;;;8.96;100.00;100570.19;5043216;28;20504;-80
2022/02/20 10:58:17;;;;;;;67.75;9.27;;;;;;;8.96;100.00;100547.44;5061652;28;20028;-79
2022/02/20 11:01:18;;;;;;;68.60;11.82;;;;;;;8.96;100.00;100529.06;5047925;28;20020;-77
2022/02/20 11:03:44;;;;;;;76.93;10.25;;;;;;;8.99;100.00;100526.47;5061257;28;20086;-75
2022/02/20 11:06:09;;;;;;;71.63;9.07;;;;;;;9.01;100.00;100534.41;5061277;28;20071;-78
2022/02/20 11:08:35;;;;;;;80.55;9.65;;;;;;;9.08;100.00;100508.28;5067997;28;20036;-77
2022/02/20 11:11:36;;;;;;;71.65;9.32;;;;;;;9.07;100.00;100498.63;5072197;28;20107;-76
2022/02/20 11:13:56;;;;;;;74.95;11.38;;;;;;;9.09;100.00;100504.81;5066664;28;20182;-76
2022/02/20 11:16:22;;;;;;;61.13;10.15;;;;;;;9.13;100.00;100518.88;5054239;28;20139;-76